Dunipace, United Kingdom
Current Conditions -  °F | °C
As of 12:50 PM on Saturday 20 Dec 2014 (Local Time) from EGPH Reporting Station
Few Clouds Few Clouds  
Wind Chill: 41°   Ceiling: Unl
Heat Index: 46°   Visibility: 6mi
Dew Point: 36°   Wind: 13mph
Humidity: 66%   Direction: 260°W
Pressure: 30.09"   Gusts: NA
Location:  56.03°N, 3.91°W
Report Text: EGPH 201250Z 26011KT 9999 FEW035 08/02 Q1019
Loading
Personal Weather Stations






























Interactive Weather Map New forecast layout! Learn more

10-Day Weather Forecast

Advertisements
Track Severe Weather on mobile